sensor_id;sensor_type;location;lat;lon;timestamp;temperature;humidity
71082;SHT31;58740;50.672;18.690;2024-01-25T00:00:21;6.58;75.71
71082;SHT31;58740;50.672;18.690;2024-01-25T00:03:14;6.58;75.64
71082;SHT31;58740;50.672;18.690;2024-01-25T00:05:48;6.57;75.76
71082;SHT31;58740;50.672;18.690;2024-01-25T00:08:21;6.56;75.70
71082;SHT31;58740;50.672;18.690;2024-01-25T00:10:54;6.55;75.64
71082;SHT31;58740;50.672;18.690;2024-01-25T00:13:28;6.55;75.59
71082;SHT31;58740;50.672;18.690;2024-01-25T00:16:01;6.54;75.72
71082;SHT31;58740;50.672;18.690;2024-01-25T00:18:36;6.54;75.69
71082;SHT31;58740;50.672;18.690;2024-01-25T00:21:09;6.54;75.68
71082;SHT31;58740;50.672;18.690;2024-01-25T00:23:42;6.54;75.58
71082;SHT31;58740;50.672;18.690;2024-01-25T00:26:16;6.53;75.73
71082;SHT31;58740;50.672;18.690;2024-01-25T00:28:49;6.52;75.71
71082;SHT31;58740;50.672;18.690;2024-01-25T00:31:22;6.52;75.78
71082;SHT31;58740;50.672;18.690;2024-01-25T00:33:56;6.51;75.82
71082;SHT31;58740;50.672;18.690;2024-01-25T00:36:32;6.51;75.76
71082;SHT31;58740;50.672;18.690;2024-01-25T00:39:08;6.49;75.74
71082;SHT31;58740;50.672;18.690;2024-01-25T00:41:42;6.49;75.68
71082;SHT31;58740;50.672;18.690;2024-01-25T00:44:22;6.49;75.66
71082;SHT31;58740;50.672;18.690;2024-01-25T00:46:56;6.48;75.70
71082;SHT31;58740;50.672;18.690;2024-01-25T00:49:31;6.48;75.59
71082;SHT31;58740;50.672;18.690;2024-01-25T00:52:06;6.48;75.53
71082;SHT31;58740;50.672;18.690;2024-01-25T00:54:42;6.47;75.54
71082;SHT31;58740;50.672;18.690;2024-01-25T00:57:17;6.47;75.61
71082;SHT31;58740;50.672;18.690;2024-01-25T00:59:52;6.47;75.63
71082;SHT31;58740;50.672;18.690;2024-01-25T01:02:26;6.47;75.72
71082;SHT31;58740;50.672;18.690;2024-01-25T01:05:05;6.46;75.82
71082;SHT31;58740;50.672;18.690;2024-01-25T01:07:41;6.45;75.80
71082;SHT31;58740;50.672;18.690;2024-01-25T01:10:16;6.44;75.99
71082;SHT31;58740;50.672;18.690;2024-01-25T01:12:50;6.41;76.31
71082;SHT31;58740;50.672;18.690;2024-01-25T01:15:23;6.39;76.42
71082;SHT31;58740;50.672;18.690;2024-01-25T01:17:56;6.37;76.61
71082;SHT31;58740;50.672;18.690;2024-01-25T01:20:30;6.36;76.64
71082;SHT31;58740;50.672;18.690;2024-01-25T01:23:04;6.34;76.68
71082;SHT31;58740;50.672;18.690;2024-01-25T01:25:37;6.32;76.75
71082;SHT31;58740;50.672;18.690;2024-01-25T01:28:10;6.31;76.81
71082;SHT31;58740;50.672;18.690;2024-01-25T01:30:43;6.29;76.82
71082;SHT31;58740;50.672;18.690;2024-01-25T01:33:17;6.28;76.85
71082;SHT31;58740;50.672;18.690;2024-01-25T01:35:50;6.28;76.88
71082;SHT31;58740;50.672;18.690;2024-01-25T01:38:24;6.27;76.77
71082;SHT31;58740;50.672;18.690;2024-01-25T01:40:57;6.27;76.54
71082;SHT31;58740;50.672;18.690;2024-01-25T01:43:31;6.28;76.50
71082;SHT31;58740;50.672;18.690;2024-01-25T01:46:06;6.28;76.43
71082;SHT31;58740;50.672;18.690;2024-01-25T01:48:48;6.28;76.41
71082;SHT31;58740;50.672;18.690;2024-01-25T01:51:22;6.29;76.24
71082;SHT31;58740;50.672;18.690;2024-01-25T01:53:55;6.29;76.06
71082;SHT31;58740;50.672;18.690;2024-01-25T01:56:31;6.30;75.95
71082;SHT31;58740;50.672;18.690;2024-01-25T01:59:06;6.29;75.89
71082;SHT31;58740;50.672;18.690;2024-01-25T02:01:41;6.30;75.69
71082;SHT31;58740;50.672;18.690;2024-01-25T02:04:15;6.30;75.48
71082;SHT31;58740;50.672;18.690;2024-01-25T02:06:48;6.31;75.43
71082;SHT31;58740;50.672;18.690;2024-01-25T02:09:22;6.32;75.38
71082;SHT31;58740;50.672;18.690;2024-01-25T02:12:00;6.31;75.36
71082;SHT31;58740;50.672;18.690;2024-01-25T02:14:35;6.31;75.38
71082;SHT31;58740;50.672;18.690;2024-01-25T02:17:09;6.31;75.38
71082;SHT31;58740;50.672;18.690;2024-01-25T02:19:42;6.31;75.32
71082;SHT31;58740;50.672;18.690;2024-01-25T02:22:16;6.29;75.41
71082;SHT31;58740;50.672;18.690;2024-01-25T02:24:50;6.30;75.34
71082;SHT31;58740;50.672;18.690;2024-01-25T02:27:24;6.27;75.61
71082;SHT31;58740;50.672;18.690;2024-01-25T02:29:57;6.22;76.37
71082;SHT31;58740;50.672;18.690;2024-01-25T02:32:31;6.16;76.96
71082;SHT31;58740;50.672;18.690;2024-01-25T02:35:05;6.09;77.31
71082;SHT31;58740;50.672;18.690;2024-01-25T02:37:39;6.05;77.52
71082;SHT31;58740;50.672;18.690;2024-01-25T02:40:13;6.00;77.82
71082;SHT31;58740;50.672;18.690;2024-01-25T02:42:48;5.96;77.95
71082;SHT31;58740;50.672;18.690;2024-01-25T02:45:21;5.92;78.07
71082;SHT31;58740;50.672;18.690;2024-01-25T02:47:55;5.88;78.27
71082;SHT31;58740;50.672;18.690;2024-01-25T02:50:28;5.86;78.30
71082;SHT31;58740;50.672;18.690;2024-01-25T02:53:02;5.83;78.33
71082;SHT31;58740;50.672;18.690;2024-01-25T02:55:36;5.81;78.36
71082;SHT31;58740;50.672;18.690;2024-01-25T02:58:09;5.80;78.26
71082;SHT31;58740;50.672;18.690;2024-01-25T03:00:42;5.80;78.22
71082;SHT31;58740;50.672;18.690;2024-01-25T03:03:15;5.80;78.19
71082;SHT31;58740;50.672;18.690;2024-01-25T03:05:49;5.79;78.27
71082;SHT31;58740;50.672;18.690;2024-01-25T03:08:23;5.82;78.26
71082;SHT31;58740;50.672;18.690;2024-01-25T03:10:56;5.81;78.24
71082;SHT31;58740;50.672;18.690;2024-01-25T03:13:29;5.83;78.06
71082;SHT31;58740;50.672;18.690;2024-01-25T03:16:03;5.83;77.70
71082;SHT31;58740;50.672;18.690;2024-01-25T03:18:38;5.86;77.19
71082;SHT31;58740;50.672;18.690;2024-01-25T03:21:11;5.89;76.87
71082;SHT31;58740;50.672;18.690;2024-01-25T03:23:44;5.93;76.77
71082;SHT31;58740;50.672;18.690;2024-01-25T03:26:17;5.94;76.53
71082;SHT31;58740;50.672;18.690;2024-01-25T03:28:50;5.96;76.14
71082;SHT31;58740;50.672;18.690;2024-01-25T03:31:23;5.99;75.86
71082;SHT31;58740;50.672;18.690;2024-01-25T03:33:57;6.01;75.84
71082;SHT31;58740;50.672;18.690;2024-01-25T03:36:30;6.03;75.69
71082;SHT31;58740;50.672;18.690;2024-01-25T03:39:05;6.05;75.67
71082;SHT31;58740;50.672;18.690;2024-01-25T03:41:38;6.06;75.68
71082;SHT31;58740;50.672;18.690;2024-01-25T03:44:11;6.06;75.54
71082;SHT31;58740;50.672;18.690;2024-01-25T03:46:44;6.07;75.47
71082;SHT31;58740;50.672;18.690;2024-01-25T03:49:19;6.08;75.30
71082;SHT31;58740;50.672;18.690;2024-01-25T03:51:53;6.09;75.14
71082;SHT31;58740;50.672;18.690;2024-01-25T03:54:26;6.09;75.11
71082;SHT31;58740;50.672;18.690;2024-01-25T03:56:59;6.10;75.01
71082;SHT31;58740;50.672;18.690;2024-01-25T03:59:33;6.10;74.93
71082;SHT31;58740;50.672;18.690;2024-01-25T04:02:06;6.11;74.84
71082;SHT31;58740;50.672;18.690;2024-01-25T04:04:40;6.11;74.73
71082;SHT31;58740;50.672;18.690;2024-01-25T04:07:13;6.13;74.86
71082;SHT31;58740;50.672;18.690;2024-01-25T04:09:46;6.12;74.67
71082;SHT31;58740;50.672;18.690;2024-01-25T04:12:20;6.13;74.57
71082;SHT31;58740;50.672;18.690;2024-01-25T04:14:54;6.14;74.68
71082;SHT31;58740;50.672;18.690;2024-01-25T04:17:27;6.14;74.75
71082;SHT31;58740;50.672;18.690;2024-01-25T04:20:00;6.13;75.00
71082;SHT31;58740;50.672;18.690;2024-01-25T04:22:35;6.12;75.09
71082;SHT31;58740;50.672;18.690;2024-01-25T04:25:09;6.12;75.06
71082;SHT31;58740;50.672;18.690;2024-01-25T04:27:42;6.12;75.44
71082;SHT31;58740;50.672;18.690;2024-01-25T04:30:15;6.10;75.50
71082;SHT31;58740;50.672;18.690;2024-01-25T04:32:48;6.07;75.69
71082;SHT31;58740;50.672;18.690;2024-01-25T04:35:22;6.05;75.92
71082;SHT31;58740;50.672;18.690;2024-01-25T04:37:55;6.03;76.00
71082;SHT31;58740;50.672;18.690;2024-01-25T04:40:29;6.00;76.05
71082;SHT31;58740;50.672;18.690;2024-01-25T04:43:02;5.97;76.14
71082;SHT31;58740;50.672;18.690;2024-01-25T04:45:36;5.95;76.26
71082;SHT31;58740;50.672;18.690;2024-01-25T04:48:10;5.92;76.27
71082;SHT31;58740;50.672;18.690;2024-01-25T04:50:43;5.91;76.32
71082;SHT31;58740;50.672;18.690;2024-01-25T04:53:16;5.90;76.40
71082;SHT31;58740;50.672;18.690;2024-01-25T04:55:49;5.88;76.43
71082;SHT31;58740;50.672;18.690;2024-01-25T04:58:25;5.86;76.40
71082;SHT31;58740;50.672;18.690;2024-01-25T05:00:59;5.85;76.57
71082;SHT31;58740;50.672;18.690;2024-01-25T05:03:33;5.84;76.92
71082;SHT31;58740;50.672;18.690;2024-01-25T05:06:06;5.80;77.08
71082;SHT31;58740;50.672;18.690;2024-01-25T05:08:39;5.78;77.21
71082;SHT31;58740;50.672;18.690;2024-01-25T05:11:14;5.77;77.29
71082;SHT31;58740;50.672;18.690;2024-01-25T05:13:47;5.76;77.33
71082;SHT31;58740;50.672;18.690;2024-01-25T05:16:21;5.75;77.34
71082;SHT31;58740;50.672;18.690;2024-01-25T05:18:54;5.76;77.46
71082;SHT31;58740;50.672;18.690;2024-01-25T05:21:28;5.74;77.57
71082;SHT31;58740;50.672;18.690;2024-01-25T05:24:01;5.75;77.60
71082;SHT31;58740;50.672;18.690;2024-01-25T05:26:36;5.75;77.62
71082;SHT31;58740;50.672;18.690;2024-01-25T05:29:09;5.76;77.62
71082;SHT31;58740;50.672;18.690;2024-01-25T05:31:43;5.76;77.56
71082;SHT31;58740;50.672;18.690;2024-01-25T05:34:18;5.77;77.53
71082;SHT31;58740;50.672;18.690;2024-01-25T05:36:52;5.78;77.40
71082;SHT31;58740;50.672;18.690;2024-01-25T05:39:25;5.79;77.41
71082;SHT31;58740;50.672;18.690;2024-01-25T05:41:59;5.80;77.42
71082;SHT31;58740;50.672;18.690;2024-01-25T05:44:33;5.81;77.51
71082;SHT31;58740;50.672;18.690;2024-01-25T05:47:06;5.81;77.69
71082;SHT31;58740;50.672;18.690;2024-01-25T05:49:39;5.81;77.73
71082;SHT31;58740;50.672;18.690;2024-01-25T05:52:13;5.80;77.83
71082;SHT31;58740;50.672;18.690;2024-01-25T05:54:47;5.79;77.86
71082;SHT31;58740;50.672;18.690;2024-01-25T05:57:20;5.80;77.84
71082;SHT31;58740;50.672;18.690;2024-01-25T05:59:54;5.78;77.99
71082;SHT31;58740;50.672;18.690;2024-01-25T06:02:27;5.77;78.00
71082;SHT31;58740;50.672;18.690;2024-01-25T06:05:00;5.77;77.95
71082;SHT31;58740;50.672;18.690;2024-01-25T06:07:34;5.77;77.90
71082;SHT31;58740;50.672;18.690;2024-01-25T06:10:08;5.78;78.02
71082;SHT31;58740;50.672;18.690;2024-01-25T06:12:43;5.78;78.08
71082;SHT31;58740;50.672;18.690;2024-01-25T06:15:16;5.77;78.01
71082;SHT31;58740;50.672;18.690;2024-01-25T06:17:50;5.77;78.00
71082;SHT31;58740;50.672;18.690;2024-01-25T06:20:23;5.78;78.08
71082;SHT31;58740;50.672;18.690;2024-01-25T06:22:56;5.80;78.14
71082;SHT31;58740;50.672;18.690;2024-01-25T06:25:30;5.80;78.09
71082;SHT31;58740;50.672;18.690;2024-01-25T06:28:04;5.81;78.08
71082;SHT31;58740;50.672;18.690;2024-01-25T06:30:38;5.81;78.23
71082;SHT31;58740;50.672;18.690;2024-01-25T06:33:11;5.79;78.68
71082;SHT31;58740;50.672;18.690;2024-01-25T06:35:44;5.77;79.00
71082;SHT31;58740;50.672;18.690;2024-01-25T06:38:19;5.73;79.43
71082;SHT31;58740;50.672;18.690;2024-01-25T06:40:52;5.69;79.76
71082;SHT31;58740;50.672;18.690;2024-01-25T06:43:25;5.64;79.94
71082;SHT31;58740;50.672;18.690;2024-01-25T06:45:59;5.61;80.00
71082;SHT31;58740;50.672;18.690;2024-01-25T06:48:32;5.60;80.02
71082;SHT31;58740;50.672;18.690;2024-01-25T06:51:06;5.58;80.16
71082;SHT31;58740;50.672;18.690;2024-01-25T06:53:39;5.56;80.30
71082;SHT31;58740;50.672;18.690;2024-01-25T06:56:12;5.55;80.30
71082;SHT31;58740;50.672;18.690;2024-01-25T06:58:46;5.54;80.32
71082;SHT31;58740;50.672;18.690;2024-01-25T07:01:21;5.54;80.26
71082;SHT31;58740;50.672;18.690;2024-01-25T07:03:57;5.53;80.35
71082;SHT31;58740;50.672;18.690;2024-01-25T07:06:33;5.54;80.40
71082;SHT31;58740;50.672;18.690;2024-01-25T07:09:06;5.54;80.44
71082;SHT31;58740;50.672;18.690;2024-01-25T07:11:40;5.54;80.49
71082;SHT31;58740;50.672;18.690;2024-01-25T07:14:13;5.53;80.57
71082;SHT31;58740;50.672;18.690;2024-01-25T07:16:46;5.53;80.60
71082;SHT31;58740;50.672;18.690;2024-01-25T07:19:20;5.52;80.73
71082;SHT31;58740;50.672;18.690;2024-01-25T07:21:54;5.52;80.87
71082;SHT31;58740;50.672;18.690;2024-01-25T07:24:27;5.50;80.94
71082;SHT31;58740;50.672;18.690;2024-01-25T07:27:01;5.49;81.06
71082;SHT31;58740;50.672;18.690;2024-01-25T07:29:34;5.48;81.21
71082;SHT31;58740;50.672;18.690;2024-01-25T07:32:07;5.46;81.29
71082;SHT31;58740;50.672;18.690;2024-01-25T07:34:41;5.45;81.39
71082;SHT31;58740;50.672;18.690;2024-01-25T07:37:15;5.45;81.45
71082;SHT31;58740;50.672;18.690;2024-01-25T07:39:49;5.44;81.59
71082;SHT31;58740;50.672;18.690;2024-01-25T07:42:22;5.43;81.68
71082;SHT31;58740;50.672;18.690;2024-01-25T07:44:55;5.42;81.68
71082;SHT31;58740;50.672;18.690;2024-01-25T07:47:29;5.43;81.70
71082;SHT31;58740;50.672;18.690;2024-01-25T07:50:02;5.43;81.66
71082;SHT31;58740;50.672;18.690;2024-01-25T07:52:39;5.43;81.70
71082;SHT31;58740;50.672;18.690;2024-01-25T07:55:12;5.44;81.70
71082;SHT31;58740;50.672;18.690;2024-01-25T07:57:45;5.44;81.73
71082;SHT31;58740;50.672;18.690;2024-01-25T08:00:19;5.43;81.71
71082;SHT31;58740;50.672;18.690;2024-01-25T08:02:52;5.44;81.70
71082;SHT31;58740;50.672;18.690;2024-01-25T08:05:26;5.45;81.73
71082;SHT31;58740;50.672;18.690;2024-01-25T08:08:12;5.46;81.70
71082;SHT31;58740;50.672;18.690;2024-01-25T08:10:46;5.47;81.70
71082;SHT31;58740;50.672;18.690;2024-01-25T08:13:20;5.47;81.70
71082;SHT31;58740;50.672;18.690;2024-01-25T08:15:53;5.48;81.73
71082;SHT31;58740;50.672;18.690;2024-01-25T08:18:27;5.47;81.72
71082;SHT31;58740;50.672;18.690;2024-01-25T08:21:00;5.47;81.72
71082;SHT31;58740;50.672;18.690;2024-01-25T08:23:34;5.47;81.70
71082;SHT31;58740;50.672;18.690;2024-01-25T08:26:08;5.47;81.74
71082;SHT31;58740;50.672;18.690;2024-01-25T08:28:43;5.47;81.70
71082;SHT31;58740;50.672;18.690;2024-01-25T08:31:17;5.48;81.70
71082;SHT31;58740;50.672;18.690;2024-01-25T08:33:51;5.48;81.61
71082;SHT31;58740;50.672;18.690;2024-01-25T08:36:24;5.50;81.50
71082;SHT31;58740;50.672;18.690;2024-01-25T08:38:58;5.50;81.42
71082;SHT31;58740;50.672;18.690;2024-01-25T08:41:32;5.51;81.40
71082;SHT31;58740;50.672;18.690;2024-01-25T08:44:09;5.52;81.39
71082;SHT31;58740;50.672;18.690;2024-01-25T08:46:43;5.52;81.31
71082;SHT31;58740;50.672;18.690;2024-01-25T08:49:16;5.53;81.30
71082;SHT31;58740;50.672;18.690;2024-01-25T08:51:50;5.54;81.30
71082;SHT31;58740;50.672;18.690;2024-01-25T08:54:24;5.54;81.24
71082;SHT31;58740;50.672;18.690;2024-01-25T08:56:57;5.54;81.15
71082;SHT31;58740;50.672;18.690;2024-01-25T08:59:31;5.55;81.05
71082;SHT31;58740;50.672;18.690;2024-01-25T09:02:06;5.55;81.04
71082;SHT31;58740;50.672;18.690;2024-01-25T09:04:40;5.56;81.04
71082;SHT31;58740;50.672;18.690;2024-01-25T09:07:14;5.56;81.00
71082;SHT31;58740;50.672;18.690;2024-01-25T09:09:47;5.57;81.06
71082;SHT31;58740;50.672;18.690;2024-01-25T09:12:20;5.59;81.10
71082;SHT31;58740;50.672;18.690;2024-01-25T09:14:53;5.58;81.04
71082;SHT31;58740;50.672;18.690;2024-01-25T09:17:27;5.61;81.02
71082;SHT31;58740;50.672;18.690;2024-01-25T09:20:00;5.61;80.91
71082;SHT31;58740;50.672;18.690;2024-01-25T09:22:36;5.63;80.81
71082;SHT31;58740;50.672;18.690;2024-01-25T09:25:09;5.65;80.75
71082;SHT31;58740;50.672;18.690;2024-01-25T09:27:43;5.66;80.63
71082;SHT31;58740;50.672;18.690;2024-01-25T09:30:17;5.69;80.45
71082;SHT31;58740;50.672;18.690;2024-01-25T09:32:50;5.70;80.37
71082;SHT31;58740;50.672;18.690;2024-01-25T09:35:24;5.71;80.18
71082;SHT31;58740;50.672;18.690;2024-01-25T09:37:58;5.73;80.02
71082;SHT31;58740;50.672;18.690;2024-01-25T09:40:31;5.74;79.86
71082;SHT31;58740;50.672;18.690;2024-01-25T09:43:06;5.75;79.65
71082;SHT31;58740;50.672;18.690;2024-01-25T09:45:39;5.78;79.58
71082;SHT31;58740;50.672;18.690;2024-01-25T09:48:14;5.80;79.21
71082;SHT31;58740;50.672;18.690;2024-01-25T09:50:49;5.83;78.89
71082;SHT31;58740;50.672;18.690;2024-01-25T09:53:25;5.85;78.69
71082;SHT31;58740;50.672;18.690;2024-01-25T09:56:03;5.87;78.46
71082;SHT31;58740;50.672;18.690;2024-01-25T09:58:40;5.89;78.26
71082;SHT31;58740;50.672;18.690;2024-01-25T10:01:15;5.91;78.00
71082;SHT31;58740;50.672;18.690;2024-01-25T10:03:49;5.93;77.77
71082;SHT31;58740;50.672;18.690;2024-01-25T10:06:25;5.94;77.68
71082;SHT31;58740;50.672;18.690;2024-01-25T10:08:58;5.95;77.56
71082;SHT31;58740;50.672;18.690;2024-01-25T10:11:32;5.95;77.27
71082;SHT31;58740;50.672;18.690;2024-01-25T10:14:15;5.98;77.00
71082;SHT31;58740;50.672;18.690;2024-01-25T10:16:49;5.99;76.69
71082;SHT31;58740;50.672;18.690;2024-01-25T10:19:28;5.99;76.62
71082;SHT31;58740;50.672;18.690;2024-01-25T10:22:02;6.00;76.41
71082;SHT31;58740;50.672;18.690;2024-01-25T10:24:42;6.02;76.13
71082;SHT31;58740;50.672;18.690;2024-01-25T10:27:18;6.01;75.96
71082;SHT31;58740;50.672;18.690;2024-01-25T10:29:52;6.01;75.78
71082;SHT31;58740;50.672;18.690;2024-01-25T10:32:27;6.02;75.64
71082;SHT31;58740;50.672;18.690;2024-01-25T10:35:00;6.04;75.55
71082;SHT31;58740;50.672;18.690;2024-01-25T10:37:37;6.06;75.63
71082;SHT31;58740;50.672;18.690;2024-01-25T10:40:12;6.08;75.69
71082;SHT31;58740;50.672;18.690;2024-01-25T10:42:48;6.08;75.73
71082;SHT31;58740;50.672;18.690;2024-01-25T10:45:22;6.07;75.77
71082;SHT31;58740;50.672;18.690;2024-01-25T10:47:55;6.06;75.89
71082;SHT31;58740;50.672;18.690;2024-01-25T10:50:29;6.03;76.10
71082;SHT31;58740;50.672;18.690;2024-01-25T10:53:03;5.99;76.39
71082;SHT31;58740;50.672;18.690;2024-01-25T10:55:37;5.96;76.61
71082;SHT31;58740;50.672;18.690;2024-01-25T10:58:11;5.95;76.82
71082;SHT31;58740;50.672;18.690;2024-01-25T11:00:50;5.94;76.94
71082;SHT31;58740;50.672;18.690;2024-01-25T11:03:28;5.94;76.95
71082;SHT31;58740;50.672;18.690;2024-01-25T11:06:08;5.93;76.81
71082;SHT31;58740;50.672;18.690;2024-01-25T11:08:43;5.93;76.72
71082;SHT31;58740;50.672;18.690;2024-01-25T11:11:16;5.94;76.65
71082;SHT31;58740;50.672;18.690;2024-01-25T11:13:51;5.96;76.47
71082;SHT31;58740;50.672;18.690;2024-01-25T11:16:29;5.97;76.48
71082;SHT31;58740;50.672;18.690;2024-01-25T11:19:07;6.00;76.61
71082;SHT31;58740;50.672;18.690;2024-01-25T11:21:49;6.01;76.36
71082;SHT31;58740;50.672;18.690;2024-01-25T11:24:23;6.04;76.30
71082;SHT31;58740;50.672;18.690;2024-01-25T11:26:57;6.04;76.11
71082;SHT31;58740;50.672;18.690;2024-01-25T11:29:34;6.06;75.89
71082;SHT31;58740;50.672;18.690;2024-01-25T11:32:12;6.07;75.63
71082;SHT31;58740;50.672;18.690;2024-01-25T11:34:45;6.08;75.29
71082;SHT31;58740;50.672;18.690;2024-01-25T11:37:29;6.10;75.24
71082;SHT31;58740;50.672;18.690;2024-01-25T11:40:04;6.09;75.29
71082;SHT31;58740;50.672;18.690;2024-01-25T11:42:40;6.10;75.34
71082;SHT31;58740;50.672;18.690;2024-01-25T11:45:17;6.09;75.37
71082;SHT31;58740;50.672;18.690;2024-01-25T11:47:51;6.07;75.55
71082;SHT31;58740;50.672;18.690;2024-01-25T11:50:25;6.07;75.44
71082;SHT31;58740;50.672;18.690;2024-01-25T11:52:59;6.06;75.33
71082;SHT31;58740;50.672;18.690;2024-01-25T11:55:32;6.07;75.31
71082;SHT31;58740;50.672;18.690;2024-01-25T11:58:06;6.08;75.18
71082;SHT31;58740;50.672;18.690;2024-01-25T12:00:40;6.09;75.17
71082;SHT31;58740;50.672;18.690;2024-01-25T12:03:13;6.12;75.14
71082;SHT31;58740;50.672;18.690;2024-01-25T12:05:48;6.14;75.14
71082;SHT31;58740;50.672;18.690;2024-01-25T12:08:22;6.16;75.18
71082;SHT31;58740;50.672;18.690;2024-01-25T12:11:03;6.18;75.07
71082;SHT31;58740;50.672;18.690;2024-01-25T12:13:41;6.20;75.04
71082;SHT31;58740;50.672;18.690;2024-01-25T12:16:15;6.20;75.00
71082;SHT31;58740;50.672;18.690;2024-01-25T12:18:50;6.20;75.01
71082;SHT31;58740;50.672;18.690;2024-01-25T12:21:24;6.22;75.06
71082;SHT31;58740;50.672;18.690;2024-01-25T12:23:57;6.20;75.02
71082;SHT31;58740;50.672;18.690;2024-01-25T12:26:34;6.19;74.98
71082;SHT31;58740;50.672;18.690;2024-01-25T12:29:08;6.19;75.05
71082;SHT31;58740;50.672;18.690;2024-01-25T12:31:42;6.19;74.99
71082;SHT31;58740;50.672;18.690;2024-01-25T12:34:15;6.19;75.09
71082;SHT31;58740;50.672;18.690;2024-01-25T12:36:48;6.18;75.08
71082;SHT31;58740;50.672;18.690;2024-01-25T12:39:22;6.17;75.09
71082;SHT31;58740;50.672;18.690;2024-01-25T12:41:56;6.17;75.19
71082;SHT31;58740;50.672;18.690;2024-01-25T12:44:30;6.17;75.14
71082;SHT31;58740;50.672;18.690;2024-01-25T12:47:05;6.18;75.05
71082;SHT31;58740;50.672;18.690;2024-01-25T12:49:39;6.18;75.15
71082;SHT31;58740;50.672;18.690;2024-01-25T12:52:13;6.20;75.03
71082;SHT31;58740;50.672;18.690;2024-01-25T12:54:47;6.21;75.06
71082;SHT31;58740;50.672;18.690;2024-01-25T12:57:20;6.22;74.84
71082;SHT31;58740;50.672;18.690;2024-01-25T12:59:54;6.23;74.83
71082;SHT31;58740;50.672;18.690;2024-01-25T13:02:30;6.25;74.78
71082;SHT31;58740;50.672;18.690;2024-01-25T13:05:04;6.25;74.79
71082;SHT31;58740;50.672;18.690;2024-01-25T13:07:38;6.27;74.62
71082;SHT31;58740;50.672;18.690;2024-01-25T13:10:11;6.27;74.59
71082;SHT31;58740;50.672;18.690;2024-01-25T13:12:45;6.27;74.55
71082;SHT31;58740;50.672;18.690;2024-01-25T13:15:19;6.28;74.46
71082;SHT31;58740;50.672;18.690;2024-01-25T13:17:53;6.26;74.23
71082;SHT31;58740;50.672;18.690;2024-01-25T13:20:27;6.26;74.32
71082;SHT31;58740;50.672;18.690;2024-01-25T13:23:01;6.26;74.39
71082;SHT31;58740;50.672;18.690;2024-01-25T13:25:35;6.24;74.64
71082;SHT31;58740;50.672;18.690;2024-01-25T13:28:08;6.23;74.92
71082;SHT31;58740;50.672;18.690;2024-01-25T13:30:42;6.22;75.15
71082;SHT31;58740;50.672;18.690;2024-01-25T13:33:15;6.21;75.34
71082;SHT31;58740;50.672;18.690;2024-01-25T13:35:49;6.20;75.56
71082;SHT31;58740;50.672;18.690;2024-01-25T13:38:22;6.20;75.83
71082;SHT31;58740;50.672;18.690;2024-01-25T13:40:55;6.18;75.93
71082;SHT31;58740;50.672;18.690;2024-01-25T13:43:28;6.16;76.04
71082;SHT31;58740;50.672;18.690;2024-01-25T13:46:02;6.15;76.19
71082;SHT31;58740;50.672;18.690;2024-01-25T13:48:35;6.13;76.13
71082;SHT31;58740;50.672;18.690;2024-01-25T13:51:09;6.09;76.12
71082;SHT31;58740;50.672;18.690;2024-01-25T13:53:42;6.07;76.20
71082;SHT31;58740;50.672;18.690;2024-01-25T13:56:17;6.04;76.16
71082;SHT31;58740;50.672;18.690;2024-01-25T13:58:50;6.03;76.26
71082;SHT31;58740;50.672;18.690;2024-01-25T14:01:24;6.02;76.30
71082;SHT31;58740;50.672;18.690;2024-01-25T14:03:57;6.01;76.25
71082;SHT31;58740;50.672;18.690;2024-01-25T14:06:31;6.00;76.15
71082;SHT31;58740;50.672;18.690;2024-01-25T14:09:04;5.98;76.11
71082;SHT31;58740;50.672;18.690;2024-01-25T14:11:38;5.97;76.20
71082;SHT31;58740;50.672;18.690;2024-01-25T14:14:12;5.95;76.33
71082;SHT31;58740;50.672;18.690;2024-01-25T14:16:45;5.94;76.50
71082;SHT31;58740;50.672;18.690;2024-01-25T14:19:20;5.91;76.73
71082;SHT31;58740;50.672;18.690;2024-01-25T14:21:54;5.88;76.96
71082;SHT31;58740;50.672;18.690;2024-01-25T14:24:47;5.88;77.16
71082;SHT31;58740;50.672;18.690;2024-01-25T14:27:21;5.85;77.26
71082;SHT31;58740;50.672;18.690;2024-01-25T14:29:56;5.84;77.36
71082;SHT31;58740;50.672;18.690;2024-01-25T14:32:30;5.83;77.44
71082;SHT31;58740;50.672;18.690;2024-01-25T14:35:04;5.82;77.50
71082;SHT31;58740;50.672;18.690;2024-01-25T14:37:39;5.82;77.50
71082;SHT31;58740;50.672;18.690;2024-01-25T14:40:15;5.83;77.49
71082;SHT31;58740;50.672;18.690;2024-01-25T14:43:08;5.82;77.38
71082;SHT31;58740;50.672;18.690;2024-01-25T14:45:42;5.80;77.32
71082;SHT31;58740;50.672;18.690;2024-01-25T14:48:16;5.80;77.40
71082;SHT31;58740;50.672;18.690;2024-01-25T14:50:49;5.80;77.47
71082;SHT31;58740;50.672;18.690;2024-01-25T14:53:22;5.79;77.46
71082;SHT31;58740;50.672;18.690;2024-01-25T14:55:55;5.79;77.40
71082;SHT31;58740;50.672;18.690;2024-01-25T14:58:29;5.78;77.37
71082;SHT31;58740;50.672;18.690;2024-01-25T15:01:03;5.77;77.39
71082;SHT31;58740;50.672;18.690;2024-01-25T15:03:37;5.77;77.30
71082;SHT31;58740;50.672;18.690;2024-01-25T15:06:11;5.75;77.29
71082;SHT31;58740;50.672;18.690;2024-01-25T15:08:44;5.75;77.23
71082;SHT31;58740;50.672;18.690;2024-01-25T15:11:18;5.74;77.07
71082;SHT31;58740;50.672;18.690;2024-01-25T15:13:51;5.73;77.03
71082;SHT31;58740;50.672;18.690;2024-01-25T15:16:25;5.71;77.11
71082;SHT31;58740;50.672;18.690;2024-01-25T15:18:59;5.71;77.16
71082;SHT31;58740;50.672;18.690;2024-01-25T15:21:33;5.71;77.16
71082;SHT31;58740;50.672;18.690;2024-01-25T15:24:06;5.70;77.09
71082;SHT31;58740;50.672;18.690;2024-01-25T15:26:40;5.70;77.00
71082;SHT31;58740;50.672;18.690;2024-01-25T15:29:14;5.70;76.83
71082;SHT31;58740;50.672;18.690;2024-01-25T15:31:48;5.70;76.63
71082;SHT31;58740;50.672;18.690;2024-01-25T15:34:21;5.69;76.59
71082;SHT31;58740;50.672;18.690;2024-01-25T15:36:55;5.69;76.68
71082;SHT31;58740;50.672;18.690;2024-01-25T15:39:28;5.71;76.68
71082;SHT31;58740;50.672;18.690;2024-01-25T15:42:02;5.69;76.55
71082;SHT31;58740;50.672;18.690;2024-01-25T15:44:35;5.68;76.55
71082;SHT31;58740;50.672;18.690;2024-01-25T15:47:09;5.67;76.47
71082;SHT31;58740;50.672;18.690;2024-01-25T15:49:43;5.67;76.46
71082;SHT31;58740;50.672;18.690;2024-01-25T15:52:16;5.67;76.34
71082;SHT31;58740;50.672;18.690;2024-01-25T15:54:50;5.67;76.22
71082;SHT31;58740;50.672;18.690;2024-01-25T15:57:23;5.68;76.12
71082;SHT31;58740;50.672;18.690;2024-01-25T16:00:00;5.68;75.65
71082;SHT31;58740;50.672;18.690;2024-01-25T16:02:35;5.70;75.47
71082;SHT31;58740;50.672;18.690;2024-01-25T16:05:09;5.71;75.52
71082;SHT31;58740;50.672;18.690;2024-01-25T16:07:43;5.72;75.64
71082;SHT31;58740;50.672;18.690;2024-01-25T16:10:18;5.72;75.63
71082;SHT31;58740;50.672;18.690;2024-01-25T16:12:53;5.72;75.54